Time;durP1;ratioP1;P1;durP2;ratioP2;P2;SDS_P1;SDS_P2;PMS_P1;PMS_P2;Temp;Humidity;BMP_temperature;BMP_pressure;BME280_temperature;BME280_humidity;BME280_pressure;Samples;Min_cycle;Max_cycle;Signal;HPM_P1;HPM_P2
2022/11/19 00:01:17;;;;;;;7.97;1.67;;;11.10;80.20;11.00;95432.00;;;;5007478;28;20659;-81
2022/11/19 00:03:49;;;;;;;0.70;0.70;;;11.10;80.30;11.00;95431.00;;;;5016319;28;20194;-81
2022/11/19 00:06:19;;;;;;;1.27;0.90;;;11.10;80.40;11.00;95432.00;;;;5024086;28;20311;-80
2022/11/19 00:08:48;;;;;;;3.07;0.90;;;11.10;80.40;11.00;95435.00;;;;5025295;28;20284;-80
2022/11/19 00:12:53;;;;;;;4.03;1.07;;;11.10;80.40;11.00;95430.00;;;;5023612;28;20841;-81
2022/11/19 00:14:06;;;;;;;7.37;1.00;;;11.00;80.40;11.00;95432.00;;;;5007287;28;20206;-81
2022/11/19 00:16:34;;;;;;;6.87;0.93;;;11.00;80.50;11.00;95427.00;;;;5021224;28;20224;-80
2022/11/19 00:19:02;;;;;;;1.17;1.07;;;11.00;80.60;11.00;95424.00;;;;5016210;28;20755;-80
2022/11/19 00:21:29;;;;;;;2.43;0.73;;;11.00;80.60;11.00;95429.00;;;;5021919;28;20281;-79
2022/11/19 00:23:58;;;;;;;1.97;0.97;;;11.00;80.40;10.90;95425.00;;;;5028765;28;20288;-80
2022/11/19 00:26:25;;;;;;;1.80;1.00;;;11.00;80.50;10.90;95424.00;;;;5024948;28;20249;-78
2022/11/19 00:28:52;;;;;;;1.03;0.70;;;11.00;80.50;10.90;95420.00;;;;5021220;28;20599;-80
2022/11/19 00:31:20;;;;;;;1.03;1.03;;;11.00;80.40;10.90;95415.00;;;;5029169;28;20619;-80
2022/11/19 00:33:49;;;;;;;3.73;1.00;;;11.00;80.30;10.90;95426.00;;;;5029689;28;20205;-79
2022/11/19 00:36:17;;;;;;;1.90;1.43;;;10.90;80.20;10.90;95428.00;;;;5024290;28;20218;-80
2022/11/19 00:38:44;;;;;;;10.53;3.80;;;10.90;80.30;10.90;95439.00;;;;5015674;28;20649;-79
2022/11/19 00:41:13;;;;;;;7.47;4.90;;;10.90;80.30;10.90;95435.00;;;;5007135;28;20630;-79
2022/11/19 00:43:49;;;;;;;2.57;2.23;;;10.90;80.40;10.80;95442.00;;;;5023506;28;20620;-80
2022/11/19 00:46:19;;;;;;;2.90;1.40;;;10.90;80.70;10.80;95435.00;;;;5028657;28;20305;-79
2022/11/19 00:48:48;;;;;;;1.23;1.10;;;10.90;80.70;10.90;95435.00;;;;5014157;28;20673;-80
2022/11/19 00:51:17;;;;;;;3.37;0.87;;;10.90;80.80;10.90;95434.00;;;;5063106;23;20296;-85
2022/11/19 00:53:45;;;;;;;4.70;1.13;;;10.90;80.70;10.90;95435.00;;;;5042661;28;20276;-86
2022/11/19 00:56:16;;;;;;;0.83;0.83;;;10.90;81.60;10.90;95433.00;;;;5035536;28;20591;-86
2022/11/19 00:58:44;;;;;;;2.40;1.03;;;10.90;80.90;10.90;95431.00;;;;5033618;28;20342;-86
2022/11/19 01:01:11;;;;;;;1.10;0.70;;;10.90;80.90;10.90;95434.00;;;;5027344;28;20284;-85
2022/11/19 01:03:40;;;;;;;0.80;0.80;;;10.90;81.00;10.90;95436.00;;;;5032199;28;20301;-86
2022/11/19 01:06:09;;;;;;;2.53;0.80;;;10.90;81.00;10.90;95441.00;;;;5033577;28;20233;-86
2022/11/19 01:08:37;;;;;;;0.90;0.90;;;10.90;81.20;11.00;95440.00;;;;5032902;28;20280;-86
2022/11/19 01:11:06;;;;;;;0.97;0.80;;;10.90;81.30;11.00;95437.00;;;;5037395;28;20247;-85
2022/11/19 01:13:36;;;;;;;1.23;0.70;;;10.90;81.40;11.00;95443.00;;;;5053748;28;20220;-86
2022/11/19 01:16:08;;;;;;;0.63;0.63;;;11.00;81.40;11.00;95442.00;;;;5035186;28;20333;-86
2022/11/19 01:18:36;;;;;;;1.47;0.80;;;11.00;81.40;11.00;95446.00;;;;5033793;28;20279;-86
2022/11/19 01:21:05;;;;;;;4.90;1.03;;;11.00;81.60;11.00;95445.00;;;;5033310;28;20240;-86
2022/11/19 01:23:33;;;;;;;0.60;0.60;;;11.00;81.70;11.10;95448.00;;;;5033580;28;20221;-87
2022/11/19 01:26:01;;;;;;;1.37;0.77;;;11.00;81.70;11.10;95446.00;;;;5033367;28;20189;-85
2022/11/19 01:28:29;;;;;;;10.20;1.47;;;11.10;81.90;11.10;95454.00;;;;5028867;28;20603;-85
2022/11/19 01:30:57;;;;;;;12.63;1.33;;;11.10;82.00;11.20;95459.00;;;;5033630;28;20284;-85
2022/11/19 01:33:25;;;;;;;1.30;0.60;;;11.10;82.10;11.20;95458.00;;;;5032798;28;20259;-86
2022/11/19 01:35:58;;;;;;;0.70;0.70;;;11.10;82.00;11.20;95452.00;;;;5028700;28;20629;-86
2022/11/19 01:38:26;;;;;;;1.30;0.77;;;11.20;82.00;11.30;95463.00;;;;5032455;28;20208;-86
2022/11/19 01:40:53;;;;;;;3.33;0.83;;;11.20;82.00;11.30;95458.00;;;;5047556;28;20316;-86
2022/11/19 01:43:20;;;;;;;1.53;0.83;;;11.20;82.10;11.30;95454.00;;;;5037057;28;20596;-85
2022/11/19 01:45:53;;;;;;;2.27;0.83;;;11.20;82.10;11.30;95468.00;;;;5032067;28;20228;-85
2022/11/19 01:48:25;;;;;;;2.20;0.70;;;11.20;82.20;11.30;95462.00;;;;5032478;28;20190;-85
2022/11/19 01:50:58;;;;;;;1.57;0.73;;;11.30;82.30;11.30;95466.00;;;;5032569;28;20213;-85
2022/11/19 01:53:30;;;;;;;0.60;0.60;;;11.30;82.30;11.40;95463.00;;;;5032341;28;20252;-86
2022/11/19 01:56:02;;;;;;;0.90;0.60;;;11.30;82.20;11.40;95462.00;;;;5032758;28;20254;-86
2022/11/19 01:58:35;;;;;;;1.80;0.70;;;11.30;82.30;11.40;95463.00;;;;5037160;28;20193;-85
2022/11/19 02:01:02;;;;;;;1.80;0.77;;;11.30;82.30;11.40;95466.00;;;;5021903;28;20296;-86
2022/11/19 02:03:33;;;;;;;0.60;0.57;;;11.40;82.40;11.40;95474.00;;;;5025730;28;20299;-86
2022/11/19 02:06:02;;;;;;;0.60;0.60;;;11.40;82.20;11.40;95472.00;;;;5028232;28;20284;-86
2022/11/19 02:08:38;;;;;;;3.33;0.80;;;11.40;82.20;11.40;95469.00;;;;5031728;28;20197;-85
2022/11/19 02:11:41;;;;;;;2.90;0.40;;;11.40;82.10;11.40;95470.00;;;;5025610;28;20212;-86
2022/11/19 02:14:35;;;;;;;0.83;0.43;;;11.40;82.00;11.50;95472.00;;;;5035224;28;20197;-86
2022/11/19 02:17:16;;;;;;;0.70;0.70;;;11.40;82.00;11.40;95472.00;;;;5037645;28;20285;-86
2022/11/19 02:20:27;;;;;;;7.73;1.30;;;11.50;82.00;11.40;95465.00;;;;5034902;28;20331;-86
2022/11/19 02:23:59;;;;;;;4.87;0.67;;;11.40;81.80;11.50;95469.00;;;;5034483;28;20724;-86
2022/11/19 02:27:27;;;;;;;0.70;0.70;;;11.40;81.70;11.50;95470.00;;;;5035495;28;20204;-86
2022/11/19 02:30:20;;;;;;;0.60;0.60;;;11.40;81.90;11.50;95463.00;;;;4967612;28;20199;-86
2022/11/19 02:33:05;;;;;;;0.67;0.60;;;11.50;81.60;11.50;95468.00;;;;5019597;28;20308;-86
2022/11/19 02:35:48;;;;;;;1.80;0.70;;;11.50;81.90;11.50;95473.00;;;;5034705;28;20280;-86
2022/11/19 02:38:27;;;;;;;3.43;0.70;;;11.50;82.00;11.50;95473.00;;;;5028288;28;20355;-86
2022/11/19 02:40:59;;;;;;;1.10;0.90;;;11.50;82.10;11.50;95468.00;;;;5034709;28;20225;-86
2022/11/19 02:43:33;;;;;;;0.97;0.90;;;11.50;81.90;11.50;95466.00;;;;5037219;28;20648;-86
2022/11/19 02:46:08;;;;;;;1.13;0.70;;;11.50;81.70;11.50;95472.00;;;;5035435;28;20322;-86
2022/11/19 02:48:41;;;;;;;7.43;1.70;;;11.50;81.60;11.50;95475.00;;;;5034952;28;20290;-86
2022/11/19 02:51:10;;;;;;;1.63;0.93;;;11.50;81.70;11.50;95472.00;;;;5035686;28;20237;-84
2022/11/19 02:53:37;;;;;;;1.00;0.90;;;11.50;81.90;11.50;95471.00;;;;5035435;28;20667;-86
2022/11/19 02:56:16;;;;;;;2.67;0.77;;;11.50;81.80;11.50;95464.00;;;;5038642;28;20537;-86
2022/11/19 03:04:30;;;;;;;0.87;0.87;;;11.50;81.30;11.50;95481.00;;;;4997798;28;20237;-86
2022/11/19 03:07:03;;;;;;;2.13;0.87;;;11.50;81.20;11.50;95478.00;;;;5027921;28;20204;-86
2022/11/19 03:09:33;;;;;;;2.23;0.90;;;11.50;81.10;11.50;95476.00;;;;5033375;28;20196;-86
2022/11/19 03:12:14;;;;;;;2.10;1.30;;;11.50;81.30;11.50;95478.00;;;;5036717;28;20228;-86
2022/11/19 03:17:59;;;;;;;1.23;1.13;;;11.50;81.20;11.50;95478.00;;;;5043794;28;20324;-86
2022/11/19 03:20:33;;;;;;;4.30;1.40;;;11.50;81.00;11.50;95484.00;;;;5040061;28;20308;-86
2022/11/19 03:23:10;;;;;;;1.53;1.43;;;11.50;81.20;11.50;95489.00;;;;5034437;28;20292;-85
2022/11/19 03:25:43;;;;;;;2.07;1.37;;;11.50;81.30;11.50;95481.00;;;;5033772;28;20235;-86
2022/11/19 03:28:17;;;;;;;2.53;1.20;;;11.50;81.40;11.50;95473.00;;;;5042708;28;20225;-86
2022/11/19 03:30:48;;;;;;;1.93;1.30;;;11.50;81.30;11.50;95478.00;;;;5035442;28;20202;-86
2022/11/19 03:33:23;;;;;;;1.70;1.47;;;11.50;81.30;11.60;95480.00;;;;5050158;22;20336;-82
2022/11/19 03:35:57;;;;;;;3.07;1.67;;;11.50;81.40;11.60;95489.00;;;;5040050;28;20248;-83
2022/11/19 03:38:30;;;;;;;1.60;1.50;;;11.50;81.30;11.60;95492.00;;;;5042172;28;20548;-81
2022/11/19 03:40:59;;;;;;;5.10;1.70;;;11.50;81.20;11.60;95493.00;;;;5035048;28;20231;-82
2022/11/19 03:43:31;;;;;;;1.70;1.33;;;11.50;81.40;11.60;95495.00;;;;5037610;28;20269;-80
2022/11/19 03:46:02;;;;;;;1.87;1.73;;;11.60;81.50;11.60;95507.00;;;;5039111;28;20279;-79
2022/11/19 03:48:32;;;;;;;2.80;2.07;;;11.60;81.20;11.60;95509.00;;;;5039675;28;20213;-80
2022/11/19 03:51:08;;;;;;;1.83;1.73;;;11.60;81.20;11.60;95503.00;;;;5034101;28;20217;-80
2022/11/19 03:53:35;;;;;;;2.03;1.70;;;11.60;81.20;11.50;95510.00;;;;5035324;28;20926;-80
2022/11/19 03:56:08;;;;;;;1.77;1.53;;;11.50;81.20;11.50;95506.00;;;;5038209;28;20222;-80
2022/11/19 03:58:40;;;;;;;2.73;1.93;;;11.50;80.90;11.60;95510.00;;;;5047129;28;20719;-79
2022/11/19 04:01:09;;;;;;;1.77;1.67;;;11.60;81.00;11.50;95513.00;;;;5038047;28;20229;-80
2022/11/19 04:03:38;;;;;;;7.17;1.90;;;11.50;81.00;11.60;95510.00;;;;5038597;28;20206;-80
2022/11/19 04:06:07;;;;;;;8.67;2.13;;;11.60;81.20;11.60;95510.00;;;;5033457;28;20260;-80
2022/11/19 04:08:34;;;;;;;2.23;1.70;;;11.60;81.30;11.60;95515.00;;;;5039521;28;20216;-80
2022/11/19 04:11:01;;;;;;;9.67;2.10;;;11.60;81.20;11.60;95520.00;;;;5044721;28;20217;-80
2022/11/19 04:13:28;;;;;;;2.30;1.60;;;11.60;81.20;11.60;95518.00;;;;5037471;28;20239;-80
2022/11/19 04:15:56;;;;;;;2.50;1.90;;;11.60;81.20;11.60;95522.00;;;;5036736;28;20237;-80
2022/11/19 04:18:23;;;;;;;2.43;1.60;;;11.60;81.30;11.60;95519.00;;;;5038744;28;20198;-80
2022/11/19 04:20:52;;;;;;;2.10;1.43;;;11.60;81.30;11.60;95509.00;;;;5035707;28;20630;-80
2022/11/19 04:23:19;;;;;;;8.70;1.90;;;11.60;81.30;11.60;95512.00;;;;5033756;28;20201;-80
2022/11/19 04:25:47;;;;;;;3.30;1.73;;;11.60;81.10;11.60;95514.00;;;;5027020;28;20638;-79
2022/11/19 04:28:14;;;;;;;3.10;1.77;;;11.60;81.20;11.60;95516.00;;;;5044677;28;20241;-80
2022/11/19 04:30:42;;;;;;;1.67;1.57;;;11.60;81.10;11.60;95508.00;;;;5052247;28;20205;-80
2022/11/19 04:33:09;;;;;;;2.23;1.90;;;11.60;81.20;11.60;95508.00;;;;5051235;28;20682;-80
2022/11/19 04:35:36;;;;;;;1.83;1.40;;;11.60;81.30;11.60;95509.00;;;;5037261;28;20249;-80
2022/11/19 04:38:05;;;;;;;2.33;1.63;;;11.60;81.20;11.60;95514.00;;;;5037843;28;20638;-80
2022/11/19 04:40:32;;;;;;;14.07;2.47;;;11.60;81.10;11.60;95514.00;;;;5030230;28;20241;-80
2022/11/19 04:42:59;;;;;;;2.53;1.90;;;11.60;81.10;11.60;95513.00;;;;5032893;28;20209;-80
2022/11/19 04:45:27;;;;;;;4.03;1.80;;;11.60;81.20;11.60;95515.00;;;;5038143;28;20228;-80
2022/11/19 04:47:54;;;;;;;1.50;1.27;;;11.60;81.10;11.60;95512.00;;;;5046471;28;20255;-80
2022/11/19 04:50:21;;;;;;;2.17;1.80;;;11.60;81.00;11.60;95511.00;;;;5042556;28;20198;-81
2022/11/19 04:52:49;;;;;;;2.30;1.40;;;11.60;80.80;11.60;95510.00;;;;5035962;28;20628;-78
2022/11/19 04:55:17;;;;;;;2.53;1.47;;;11.60;80.90;11.60;95511.00;;;;5036504;28;20650;-81
2022/11/19 04:57:44;;;;;;;7.30;1.60;;;11.60;80.70;11.60;95519.00;;;;5044318;28;20232;-80
2022/11/19 05:00:14;;;;;;;1.57;1.30;;;11.60;80.80;11.60;95523.00;;;;5036593;28;20280;-81
2022/11/19 05:02:41;;;;;;;8.50;2.17;;;11.60;80.80;11.60;95523.00;;;;5034378;28;20278;-80
2022/11/19 05:05:09;;;;;;;4.10;1.40;;;11.60;80.80;11.60;95519.00;;;;5035835;28;20723;-80
2022/11/19 05:07:36;;;;;;;3.83;1.50;;;11.60;81.00;11.50;95514.00;;;;5036060;28;20190;-80
2022/11/19 05:10:04;;;;;;;2.53;1.80;;;11.60;80.80;11.50;95527.00;;;;5033177;28;20205;-80
2022/11/19 05:12:33;;;;;;;1.90;1.70;;;11.60;81.00;11.50;95527.00;;;;5033026;28;20202;-80
2022/11/19 05:15:00;;;;;;;2.03;1.50;;;11.60;81.10;11.50;95534.00;;;;5046027;28;20639;-81
2022/11/19 05:17:27;;;;;;;2.50;1.80;;;11.60;81.10;11.50;95541.00;;;;5039683;28;20284;-81
2022/11/19 05:19:54;;;;;;;2.00;1.60;;;11.50;81.30;11.50;95536.00;;;;5040908;28;20260;-81
2022/11/19 05:22:22;;;;;;;3.90;1.97;;;11.50;81.50;11.40;95535.00;;;;5034579;28;20276;-81
2022/11/19 05:24:49;;;;;;;1.63;1.37;;;11.50;81.40;11.40;95533.00;;;;5018781;28;20272;-80
2022/11/19 05:27:16;;;;;;;2.80;1.70;;;11.50;81.40;11.40;95527.00;;;;5035542;28;20201;-78
2022/11/19 05:29:45;;;;;;;1.80;1.53;;;11.50;81.30;11.40;95534.00;;;;5037796;28;20224;-80
2022/11/19 05:32:12;;;;;;;1.63;1.53;;;11.50;81.30;11.40;95535.00;;;;5024664;28;20289;-79
2022/11/19 05:34:39;;;;;;;2.87;1.90;;;11.40;81.30;11.40;95528.00;;;;5017302;28;20238;-80
2022/11/19 05:37:06;;;;;;;5.47;1.70;;;11.40;81.40;11.40;95529.00;;;;5019932;28;20189;-80
2022/11/19 05:39:33;;;;;;;1.87;1.50;;;11.40;81.50;11.40;95528.00;;;;5045568;28;20193;-81
2022/11/19 05:42:01;;;;;;;1.90;1.50;;;11.40;81.60;11.40;95535.00;;;;5035825;28;20278;-81
2022/11/19 05:44:28;;;;;;;2.10;1.20;;;11.40;82.40;11.40;95539.00;;;;5031992;28;20226;-81
2022/11/19 05:46:58;;;;;;;4.00;1.77;;;11.40;81.70;11.40;95539.00;;;;5027318;28;20262;-81
2022/11/19 05:49:25;;;;;;;1.30;1.20;;;11.50;81.70;11.40;95536.00;;;;5041381;28;20197;-81
2022/11/19 05:51:53;;;;;;;16.73;1.87;;;11.40;81.60;11.40;95543.00;;;;5040956;28;20193;-81
2022/11/19 05:54:20;;;;;;;1.63;1.53;;;11.40;81.40;11.40;95536.00;;;;5041876;28;20200;-81
2022/11/19 05:56:47;;;;;;;2.30;1.37;;;11.40;81.50;11.40;95544.00;;;;5034060;28;20617;-81
2022/11/19 05:59:14;;;;;;;2.20;1.77;;;11.50;81.60;11.40;95542.00;;;;5039395;28;20240;-81
2022/11/19 06:01:42;;;;;;;1.83;1.20;;;11.40;81.60;11.40;95538.00;;;;5055105;28;20237;-81
2022/11/19 06:04:10;;;;;;;1.63;1.53;;;11.40;81.70;11.40;95544.00;;;;5047279;28;20395;-81
2022/11/19 06:06:37;;;;;;;3.87;1.53;;;11.40;81.60;11.40;95550.00;;;;5044702;28;20192;-81
2022/11/19 06:09:05;;;;;;;5.43;1.93;;;11.40;81.50;11.40;95549.00;;;;5043360;28;20288;-81
2022/11/19 06:11:49;;;;;;;1.50;1.40;;;11.40;81.60;11.40;95550.00;;;;5040838;28;20197;-81
2022/11/19 06:14:17;;;;;;;3.43;1.63;;;11.40;81.80;11.40;95552.00;;;;5032608;28;20194;-81
2022/11/19 06:16:44;;;;;;;1.93;1.40;;;11.40;81.90;11.40;95556.00;;;;5040236;28;20223;-81
2022/11/19 06:19:13;;;;;;;1.60;1.50;;;11.40;82.00;11.40;95555.00;;;;5046092;28;20196;-81
2022/11/19 06:21:43;;;;;;;3.60;1.87;;;11.40;82.00;11.40;95564.00;;;;5041631;28;20244;-83
2022/11/19 06:24:11;;;;;;;3.80;1.47;;;11.40;81.80;11.40;95561.00;;;;5041094;28;20275;-82
2022/11/19 06:26:39;;;;;;;1.70;1.60;;;11.50;82.00;11.40;95565.00;;;;5039969;28;20197;-82
2022/11/19 06:29:07;;;;;;;1.60;1.33;;;11.40;81.80;11.40;95565.00;;;;5051555;28;20221;-80
2022/11/19 06:31:35;;;;;;;1.57;1.47;;;11.50;81.70;11.40;95561.00;;;;5043827;28;20280;-82
2022/11/19 06:34:02;;;;;;;1.40;1.30;;;11.50;81.80;11.40;95570.00;;;;5037441;28;20236;-85
2022/11/19 06:36:31;;;;;;;2.63;1.37;;;11.50;82.00;11.40;95565.00;;;;5037057;28;20213;-85
2022/11/19 06:38:58;;;;;;;1.43;1.33;;;11.50;81.90;11.40;95568.00;;;;5033021;28;20731;-85
2022/11/19 06:41:25;;;;;;;1.50;1.40;;;11.50;81.80;11.50;95570.00;;;;5039521;28;20253;-85
2022/11/19 06:43:52;;;;;;;1.63;1.30;;;11.40;81.80;11.50;95582.00;;;;5025437;28;20229;-86
2022/11/19 06:46:19;;;;;;;1.20;1.20;;;11.50;82.00;11.50;95577.00;;;;5032118;28;20749;-85
2022/11/19 06:48:50;;;;;;;1.20;1.10;;;11.50;81.90;11.50;95579.00;;;;5033016;28;20569;-82
2022/11/19 06:51:17;;;;;;;2.83;2.03;;;11.40;81.60;11.50;95582.00;;;;5034350;28;20210;-86
2022/11/19 06:53:45;;;;;;;1.60;1.50;;;11.50;81.80;11.50;95584.00;;;;5017351;28;20292;-85
2022/11/19 06:56:13;;;;;;;1.97;1.70;;;11.50;81.80;11.50;95593.00;;;;5023252;28;20245;-85
2022/11/19 06:58:40;;;;;;;2.63;1.90;;;11.50;81.90;11.50;95587.00;;;;5037047;28;20197;-85
2022/11/19 07:01:07;;;;;;;3.27;2.30;;;11.50;81.90;11.50;95583.00;;;;5032878;28;20261;-86
2022/11/19 07:03:35;;;;;;;2.10;1.90;;;11.50;81.90;11.60;95592.00;;;;5016584;28;20194;-86
2022/11/19 07:06:04;;;;;;;8.93;2.17;;;11.50;82.60;11.60;95594.00;;;;5033118;28;20319;-86
2022/11/19 07:08:34;;;;;;;1.70;1.60;;;11.50;82.00;11.60;95592.00;;;;5032553;28;20201;-85
2022/11/19 07:11:24;;;;;;;1.33;1.23;;;11.50;82.00;11.60;95599.00;;;;5035690;28;20197;-86
2022/11/19 07:14:02;;;;;;;1.83;1.27;;;11.60;82.30;11.70;95609.00;;;;5028160;28;20629;-86
2022/11/19 07:16:33;;;;;;;1.57;1.47;;;11.60;82.40;11.80;95614.00;;;;5016017;28;20650;-88
2022/11/19 07:19:02;;;;;;;1.47;1.37;;;11.60;82.30;11.80;95615.00;;;;5035175;28;20201;-88
2022/11/19 07:21:30;;;;;;;1.50;1.40;;;11.60;82.30;11.90;95620.00;;;;5035790;28;20344;-87
2022/11/19 07:24:00;;;;;;;1.00;1.00;;;11.70;82.00;11.90;95617.00;;;;5039615;28;20196;-87
2022/11/19 07:26:32;;;;;;;3.67;1.47;;;11.70;81.50;11.90;95618.00;;;;5048794;28;20597;-88
2022/11/19 07:29:01;;;;;;;1.57;1.20;;;11.70;81.40;11.90;95626.00;;;;5051164;28;20193;-88
2022/11/19 07:31:29;;;;;;;2.67;1.70;;;11.70;81.50;11.90;95626.00;;;;5053684;28;20236;-87
2022/11/19 07:33:56;;;;;;;1.33;1.23;;;11.70;81.40;11.90;95622.00;;;;5030537;28;20229;-85
2022/11/19 07:36:23;;;;;;;5.10;1.40;;;11.70;81.30;11.90;95618.00;;;;5042527;28;20697;-87
2022/11/19 07:38:51;;;;;;;1.30;1.20;;;11.70;81.40;11.90;95626.00;;;;5015358;28;20269;-88
2022/11/19 07:44:05;;;;;;;1.40;1.30;;;11.70;81.10;11.90;95634.00;;;;5029773;28;20199;-88
2022/11/19 07:46:33;;;;;;;2.40;1.30;;;11.70;81.70;11.90;95637.00;;;;5021181;28;20276;-88
2022/11/19 07:49:00;;;;;;;1.20;1.10;;;11.70;80.80;11.80;95642.00;;;;5036290;28;20206;-87
2022/11/19 07:51:28;;;;;;;2.77;1.43;;;11.70;80.70;11.80;95629.00;;;;5053911;28;20231;-88
2022/11/19 07:53:56;;;;;;;6.57;1.87;;;11.70;80.50;11.70;95637.00;;;;5038669;28;20224;-86
2022/11/19 07:56:24;;;;;;;2.27;1.20;;;11.60;80.30;11.70;95636.00;;;;5034952;28;20306;-87
2022/11/19 07:58:51;;;;;;;1.93;1.30;;;11.60;80.40;11.70;95639.00;;;;5032222;28;20243;-87
2022/11/19 08:01:22;;;;;;;2.60;1.37;;;11.60;80.40;11.70;95624.00;;;;5027243;28;20217;-88
2022/11/19 08:03:52;;;;;;;1.43;1.33;;;11.50;80.20;11.60;95630.00;;;;5043524;28;20573;-88
2022/11/19 08:06:21;;;;;;;1.40;1.30;;;11.50;80.20;11.60;95634.00;;;;5014612;28;20285;-87
2022/11/19 08:08:48;;;;;;;3.30;1.63;;;11.50;80.40;11.60;95634.00;;;;5033897;28;20229;-85
2022/11/19 08:11:17;;;;;;;1.70;1.50;;;11.50;80.40;11.60;95631.00;;;;5025432;28;20232;-86
2022/11/19 08:13:45;;;;;;;1.47;1.37;;;11.50;80.30;11.60;95638.00;;;;5040185;28;20225;-84
2022/11/19 08:18:10;;;;;;;1.60;1.47;;;11.40;80.30;11.60;95636.00;;;;5034266;28;20279;-86
2022/11/19 08:19:08;;;;;;;1.57;1.47;;;11.50;80.60;11.60;95633.00;;;;5022665;28;20201;-87
2022/11/19 08:21:36;;;;;;;1.70;1.60;;;11.40;80.70;11.60;95628.00;;;;5035905;28;20292;-87
2022/11/19 08:24:15;;;;;;;2.40;1.80;;;11.40;80.80;11.60;95630.00;;;;5035076;28;20228;-86
2022/11/19 08:26:55;;;;;;;14.60;2.60;;;11.50;80.70;11.70;95637.00;;;;5046495;28;20193;-88
2022/11/19 08:29:23;;;;;;;6.40;2.00;;;11.40;80.80;11.70;95645.00;;;;5060560;28;20180;-87
2022/11/19 08:31:51;;;;;;;1.77;1.67;;;11.40;80.90;11.70;95651.00;;;;5040444;28;20221;-88
2022/11/19 08:34:20;;;;;;;1.50;1.30;;;11.50;80.90;11.70;95647.00;;;;5014314;28;20294;-87
2022/11/19 08:36:48;;;;;;;2.30;1.70;;;11.50;80.80;11.70;95643.00;;;;5033118;28;20224;-88
2022/11/19 08:39:15;;;;;;;1.70;1.60;;;11.50;81.00;11.70;95642.00;;;;5032017;28;20284;-88
2022/11/19 08:44:27;;;;;;;1.70;1.57;;;11.50;81.10;11.80;95642.00;;;;5014231;28;20205;-88
2022/11/19 08:46:54;;;;;;;1.77;1.67;;;11.50;81.10;11.70;95639.00;;;;5014212;28;20285;-88
2022/11/19 08:49:23;;;;;;;1.90;1.80;;;11.60;81.10;11.80;95642.00;;;;5015291;28;20233;-90
2022/11/19 08:51:50;;;;;;;2.10;1.90;;;11.60;81.20;11.80;95647.00;;;;5024472;28;20293;-90
2022/11/19 08:54:17;;;;;;;3.87;2.10;;;11.60;81.10;11.80;95653.00;;;;5048684;28;20227;-89
2022/11/19 08:56:45;;;;;;;3.43;1.93;;;11.60;80.80;11.80;95649.00;;;;5052529;28;20207;-87
2022/11/19 08:59:12;;;;;;;1.90;1.80;;;11.60;80.90;11.90;95648.00;;;;5033828;28;20237;-88
2022/11/19 09:01:40;;;;;;;1.83;1.73;;;11.60;81.10;11.90;95654.00;;;;5034434;28;20639;-86
2022/11/19 09:04:07;;;;;;;7.23;1.93;;;11.60;81.20;11.90;95658.00;;;;5033614;28;20246;-87
2022/11/19 09:06:36;;;;;;;3.40;2.10;;;11.70;81.40;11.90;95666.00;;;;5033618;28;20233;-87
2022/11/19 09:09:04;;;;;;;1.90;1.80;;;11.70;81.40;11.90;95669.00;;;;5033729;28;20654;-86
2022/11/19 09:11:31;;;;;;;2.63;1.73;;;11.70;81.40;11.90;95658.00;;;;5034225;28;20228;-86
2022/11/19 09:13:59;;;;;;;2.03;1.93;;;11.70;81.40;12.00;95661.00;;;;5033439;28;20229;-86
2022/11/19 09:16:26;;;;;;;2.07;1.90;;;11.70;81.40;12.00;95663.00;;;;5033567;28;20221;-86
2022/11/19 09:18:53;;;;;;;2.60;2.40;;;11.70;81.40;12.00;95665.00;;;;5034208;28;20689;-86
2022/11/19 09:21:21;;;;;;;2.80;2.23;;;11.70;81.40;12.00;95667.00;;;;5033029;28;20628;-85
2022/11/19 09:23:49;;;;;;;2.70;2.30;;;11.80;81.30;11.90;95662.00;;;;5033496;28;20258;-85
2022/11/19 09:26:18;;;;;;;2.30;2.10;;;11.80;81.20;12.00;95672.00;;;;5033907;28;20248;-86
2022/11/19 09:28:46;;;;;;;4.50;2.50;;;11.80;81.10;11.90;95679.00;;;;5033308;28;20232;-85
2022/11/19 09:31:16;;;;;;;1.87;1.77;;;11.80;81.10;11.90;95671.00;;;;5034090;28;20201;-85
2022/11/19 09:33:45;;;;;;;2.33;2.13;;;11.80;80.90;11.90;95681.00;;;;5033509;28;20263;-85
2022/11/19 09:36:14;;;;;;;2.50;2.30;;;11.70;80.90;11.90;95681.00;;;;5033164;28;20315;-86
2022/11/19 09:38:42;;;;;;;2.30;2.03;;;11.70;81.30;11.90;95680.00;;;;5033040;28;20227;-86
2022/11/19 09:41:47;;;;;;;2.57;2.37;;;11.80;81.40;11.90;95689.00;;;;5047684;28;20246;-87
2022/11/19 09:44:41;;;;;;;3.33;1.80;;;11.80;81.10;11.90;95693.00;;;;5053168;28;20177;-87
2022/11/19 09:47:28;;;;;;;1.90;1.80;;;11.80;81.10;11.90;95684.00;;;;5053652;28;20266;-86
2022/11/19 09:50:12;;;;;;;2.10;1.90;;;11.80;81.20;11.90;95688.00;;;;5049004;28;20772;-87
2022/11/19 09:52:47;;;;;;;1.90;1.80;;;11.80;81.10;11.90;95689.00;;;;5033412;28;20272;-87
2022/11/19 09:55:20;;;;;;;2.23;1.70;;;11.80;81.20;11.90;95680.00;;;;5032850;28;20243;-87
2022/11/19 09:57:54;;;;;;;1.87;1.77;;;11.80;81.20;11.90;95682.00;;;;5033387;28;20621;-87
2022/11/19 10:00:26;;;;;;;2.10;1.93;;;11.70;81.20;11.90;95680.00;;;;5016613;28;20244;-87
2022/11/19 10:02:54;;;;;;;1.80;1.70;;;11.70;81.30;11.90;95675.00;;;;5043209;28;20236;-87
2022/11/19 10:05:42;;;;;;;2.33;2.20;;;11.80;81.50;12.00;95689.00;;;;5053285;28;20311;-87
2022/11/19 10:08:29;;;;;;;2.37;2.13;;;11.80;81.60;12.00;95690.00;;;;5053710;28;20247;-86
2022/11/19 10:11:20;;;;;;;2.53;2.33;;;11.80;81.70;12.00;95684.00;;;;5052983;28;20181;-86
2022/11/19 10:14:00;;;;;;;2.30;2.13;;;11.80;81.60;12.00;95682.00;;;;5052926;28;20188;-84
2022/11/19 10:16:48;;;;;;;2.20;2.10;;;11.80;81.80;12.10;95676.00;;;;5040925;28;20308;-87
2022/11/19 10:19:38;;;;;;;2.13;1.97;;;11.80;81.90;12.10;95681.00;;;;5032965;28;20220;-86
2022/11/19 10:22:12;;;;;;;2.10;2.00;;;11.90;82.00;12.20;95688.00;;;;5029143;28;20244;-85
2022/11/19 10:24:44;;;;;;;2.63;2.43;;;11.90;82.20;12.20;95687.00;;;;5051993;28;20717;-86
2022/11/19 10:27:26;;;;;;;2.73;2.53;;;12.00;82.40;12.30;95681.00;;;;5045542;28;20197;-86
2022/11/19 10:30:02;;;;;;;3.00;2.43;;;12.00;82.40;12.30;95691.00;;;;5033707;28;20197;-84
2022/11/19 10:32:35;;;;;;;2.03;1.93;;;12.00;82.40;12.30;95683.00;;;;5034222;28;20232;-85
2022/11/19 10:35:15;;;;;;;3.90;1.80;;;12.10;82.50;12.40;95681.00;;;;5050669;28;20286;-86
2022/11/19 10:37:55;;;;;;;2.10;1.30;;;12.10;82.70;12.40;95682.00;;;;5057951;28;20200;-86
2022/11/19 10:40:27;;;;;;;1.70;1.60;;;12.10;82.70;12.40;95675.00;;;;5057413;28;20184;-86
2022/11/19 10:43:00;;;;;;;1.87;1.00;;;12.20;83.00;12.50;95674.00;;;;5053236;28;20224;-86
2022/11/19 10:45:30;;;;;;;1.57;1.30;;;12.20;83.20;12.50;95672.00;;;;5025163;28;20269;-86
2022/11/19 10:48:07;;;;;;;2.50;1.80;;;12.30;83.20;12.60;95674.00;;;;5041388;28;20208;-86
2022/11/19 10:50:34;;;;;;;1.27;1.20;;;12.30;83.20;12.60;95672.00;;;;5039012;28;20235;-85
2022/11/19 10:53:12;;;;;;;3.70;1.43;;;12.40;83.30;12.70;95670.00;;;;5036990;28;20304;-85
2022/11/19 10:55:44;;;;;;;1.40;0.97;;;12.40;83.20;12.70;95670.00;;;;5035847;28;20768;-87
2022/11/19 10:58:18;;;;;;;1.53;1.10;;;12.50;83.20;12.80;95665.00;;;;5036376;28;20189;-85
2022/11/19 11:00:48;;;;;;;0.90;0.90;;;12.50;83.20;12.80;95667.00;;;;5033648;28;20209;-85
2022/11/19 11:03:25;;;;;;;1.63;1.20;;;12.60;83.10;12.90;95670.00;;;;5024678;28;20248;-84
2022/11/19 11:06:04;;;;;;;1.10;1.00;;;12.60;82.90;12.90;95660.00;;;;5035948;28;20284;-86
2022/11/19 11:08:31;;;;;;;8.30;2.07;;;12.70;82.60;12.90;95661.00;;;;5035469;28;20236;-86
2022/11/19 11:10:59;;;;;;;1.50;1.40;;;12.70;82.70;13.00;95667.00;;;;5031353;28;20221;-85
2022/11/19 11:16:45;;;;;;;1.70;1.60;;;12.70;82.50;13.00;95674.00;;;;5053076;28;20970;-85
2022/11/19 11:19:16;;;;;;;1.90;1.30;;;12.80;82.30;13.00;95679.00;;;;5054536;28;20430;-85
2022/11/19 11:21:44;;;;;;;1.87;1.07;;;12.80;82.30;13.00;95660.00;;;;5036475;28;20196;-85
2022/11/19 11:24:13;;;;;;;2.20;1.00;;;12.80;82.10;13.00;95664.00;;;;5044187;28;20221;-85
2022/11/19 11:26:41;;;;;;;1.07;0.87;;;12.80;82.00;13.00;95658.00;;;;5034970;28;20189;-85
2022/11/19 11:29:26;;;;;;;1.10;0.80;;;12.80;82.10;13.00;95656.00;;;;5021398;28;20212;-85
2022/11/19 11:31:55;;;;;;;2.00;0.60;;;12.90;82.10;13.10;95654.00;;;;5014382;28;20815;-84